sensor_id;sensor_type;location;lat;lon;timestamp;P1;durP1;ratioP1;P2;durP2;ratioP2
69594;SDS011;56800;52.142;5.364;2022-11-20T00:00:16;16.60;;;8.60;;
69594;SDS011;56800;52.142;5.364;2022-11-20T00:02:42;14.57;;;7.78;;
69594;SDS011;56800;52.142;5.364;2022-11-20T00:05:09;15.03;;;8.47;;
69594;SDS011;56800;52.142;5.364;2022-11-20T00:07:36;16.88;;;8.57;;
69594;SDS011;56800;52.142;5.364;2022-11-20T00:10:02;15.77;;;8.77;;
69594;SDS011;56800;52.142;5.364;2022-11-20T00:12:29;15.02;;;8.35;;
69594;SDS011;56800;52.142;5.364;2022-11-20T00:14:56;14.73;;;8.80;;
69594;SDS011;56800;52.142;5.364;2022-11-20T00:17:22;16.20;;;8.18;;
69594;SDS011;56800;52.142;5.364;2022-11-20T00:19:49;14.95;;;8.73;;
69594;SDS011;56800;52.142;5.364;2022-11-20T00:22:16;14.88;;;8.10;;
69594;SDS011;56800;52.142;5.364;2022-11-20T00:24:42;13.73;;;8.13;;
69594;SDS011;56800;52.142;5.364;2022-11-20T00:27:09;17.30;;;9.00;;
69594;SDS011;56800;52.142;5.364;2022-11-20T00:29:35;15.68;;;8.52;;
69594;SDS011;56800;52.142;5.364;2022-11-20T00:32:02;16.30;;;8.93;;
69594;SDS011;56800;52.142;5.364;2022-11-20T00:34:29;16.57;;;8.60;;
69594;SDS011;56800;52.142;5.364;2022-11-20T00:36:55;15.07;;;7.90;;
69594;SDS011;56800;52.142;5.364;2022-11-20T00:39:22;18.35;;;8.50;;
69594;SDS011;56800;52.142;5.364;2022-11-20T00:41:49;15.40;;;8.68;;
69594;SDS011;56800;52.142;5.364;2022-11-20T00:44:16;15.98;;;7.85;;
69594;SDS011;56800;52.142;5.364;2022-11-20T00:46:42;15.88;;;8.48;;
69594;SDS011;56800;52.142;5.364;2022-11-20T00:49:09;15.80;;;8.40;;
69594;SDS011;56800;52.142;5.364;2022-11-20T00:51:36;16.10;;;8.43;;
69594;SDS011;56800;52.142;5.364;2022-11-20T00:54:02;16.80;;;8.90;;
69594;SDS011;56800;52.142;5.364;2022-11-20T00:56:29;17.80;;;8.70;;
69594;SDS011;56800;52.142;5.364;2022-11-20T00:58:58;15.70;;;8.13;;
69594;SDS011;56800;52.142;5.364;2022-11-20T01:01:26;16.73;;;8.43;;
69594;SDS011;56800;52.142;5.364;2022-11-20T01:03:56;18.37;;;9.03;;
69594;SDS011;56800;52.142;5.364;2022-11-20T01:06:28;17.38;;;9.70;;
69594;SDS011;56800;52.142;5.364;2022-11-20T01:08:58;14.98;;;8.55;;
69594;SDS011;56800;52.142;5.364;2022-11-20T01:11:27;16.30;;;8.63;;
69594;SDS011;56800;52.142;5.364;2022-11-20T01:13:55;16.30;;;8.73;;
69594;SDS011;56800;52.142;5.364;2022-11-20T01:16:27;17.02;;;8.88;;
69594;SDS011;56800;52.142;5.364;2022-11-20T01:18:59;16.05;;;8.90;;
69594;SDS011;56800;52.142;5.364;2022-11-20T01:21:28;15.10;;;8.82;;
69594;SDS011;56800;52.142;5.364;2022-11-20T01:23:56;18.08;;;9.77;;
69594;SDS011;56800;52.142;5.364;2022-11-20T01:26:25;16.15;;;8.63;;
69594;SDS011;56800;52.142;5.364;2022-11-20T01:28:53;17.27;;;9.77;;
69594;SDS011;56800;52.142;5.364;2022-11-20T01:31:24;17.27;;;8.98;;
69594;SDS011;56800;52.142;5.364;2022-11-20T01:33:55;18.30;;;8.93;;
69594;SDS011;56800;52.142;5.364;2022-11-20T01:36:23;17.27;;;8.93;;
69594;SDS011;56800;52.142;5.364;2022-11-20T01:38:52;14.77;;;8.50;;
69594;SDS011;56800;52.142;5.364;2022-11-20T01:41:20;18.27;;;8.95;;
69594;SDS011;56800;52.142;5.364;2022-11-20T01:44:05;18.37;;;9.87;;
69594;SDS011;56800;52.142;5.364;2022-11-20T01:46:33;17.27;;;9.40;;
69594;SDS011;56800;52.142;5.364;2022-11-20T01:49:08;16.60;;;9.40;;
69594;SDS011;56800;52.142;5.364;2022-11-20T01:51:45;18.33;;;9.93;;
69594;SDS011;56800;52.142;5.364;2022-11-20T01:54:18;16.87;;;9.73;;
69594;SDS011;56800;52.142;5.364;2022-11-20T01:56:50;15.40;;;8.65;;
69594;SDS011;56800;52.142;5.364;2022-11-20T01:59:20;17.05;;;9.25;;
69594;SDS011;56800;52.142;5.364;2022-11-20T02:01:50;16.50;;;9.18;;
69594;SDS011;56800;52.142;5.364;2022-11-20T02:04:16;14.90;;;8.77;;
69594;SDS011;56800;52.142;5.364;2022-11-20T02:06:45;15.52;;;8.82;;
69594;SDS011;56800;52.142;5.364;2022-11-20T02:09:15;15.13;;;8.85;;
69594;SDS011;56800;52.142;5.364;2022-11-20T02:11:43;19.33;;;8.93;;
69594;SDS011;56800;52.142;5.364;2022-11-20T02:14:09;18.45;;;8.80;;
69594;SDS011;56800;52.142;5.364;2022-11-20T02:16:37;18.00;;;8.82;;
69594;SDS011;56800;52.142;5.364;2022-11-20T02:19:13;20.48;;;9.60;;
69594;SDS011;56800;52.142;5.364;2022-11-20T02:21:53;19.13;;;9.20;;
69594;SDS011;56800;52.142;5.364;2022-11-20T02:24:28;17.80;;;9.53;;
69594;SDS011;56800;52.142;5.364;2022-11-20T02:27:05;16.77;;;8.90;;
69594;SDS011;56800;52.142;5.364;2022-11-20T02:29:42;18.35;;;8.80;;
69594;SDS011;56800;52.142;5.364;2022-11-20T02:34:52;17.00;;;9.20;;
69594;SDS011;56800;52.142;5.364;2022-11-20T02:37:19;19.40;;;9.88;;
69594;SDS011;56800;52.142;5.364;2022-11-20T02:39:47;17.05;;;9.00;;
69594;SDS011;56800;52.142;5.364;2022-11-20T02:42:16;20.48;;;9.25;;
69594;SDS011;56800;52.142;5.364;2022-11-20T02:44:43;17.40;;;9.67;;
69594;SDS011;56800;52.142;5.364;2022-11-20T02:47:09;20.65;;;10.15;;
69594;SDS011;56800;52.142;5.364;2022-11-20T02:49:36;16.30;;;9.75;;
69594;SDS011;56800;52.142;5.364;2022-11-20T02:52:02;19.02;;;9.73;;
69594;SDS011;56800;52.142;5.364;2022-11-20T02:54:29;18.63;;;9.37;;
69594;SDS011;56800;52.142;5.364;2022-11-20T02:56:56;19.15;;;9.48;;
69594;SDS011;56800;52.142;5.364;2022-11-20T02:59:23;16.92;;;10.02;;
69594;SDS011;56800;52.142;5.364;2022-11-20T03:01:50;18.27;;;9.20;;
69594;SDS011;56800;52.142;5.364;2022-11-20T03:04:16;16.10;;;8.97;;
69594;SDS011;56800;52.142;5.364;2022-11-20T03:06:43;16.88;;;9.15;;
69594;SDS011;56800;52.142;5.364;2022-11-20T03:09:10;19.23;;;9.43;;
69594;SDS011;56800;52.142;5.364;2022-11-20T03:11:36;18.17;;;9.75;;
69594;SDS011;56800;52.142;5.364;2022-11-20T03:14:03;21.80;;;9.80;;
69594;SDS011;56800;52.142;5.364;2022-11-20T03:16:31;18.00;;;9.48;;
69594;SDS011;56800;52.142;5.364;2022-11-20T03:18:58;17.25;;;9.10;;
69594;SDS011;56800;52.142;5.364;2022-11-20T03:21:25;15.63;;;8.98;;
69594;SDS011;56800;52.142;5.364;2022-11-20T03:23:53;17.07;;;9.27;;
69594;SDS011;56800;52.142;5.364;2022-11-20T03:26:21;15.20;;;9.07;;
69594;SDS011;56800;52.142;5.364;2022-11-20T03:28:50;15.15;;;8.80;;
69594;SDS011;56800;52.142;5.364;2022-11-20T03:31:19;17.58;;;9.60;;
69594;SDS011;56800;52.142;5.364;2022-11-20T03:33:47;19.33;;;10.00;;
69594;SDS011;56800;52.142;5.364;2022-11-20T03:36:15;17.25;;;9.13;;
69594;SDS011;56800;52.142;5.364;2022-11-20T03:38:43;19.63;;;9.85;;
69594;SDS011;56800;52.142;5.364;2022-11-20T03:41:11;17.48;;;9.18;;
69594;SDS011;56800;52.142;5.364;2022-11-20T03:43:50;15.57;;;8.90;;
69594;SDS011;56800;52.142;5.364;2022-11-20T03:46:19;16.60;;;9.13;;
69594;SDS011;56800;52.142;5.364;2022-11-20T03:48:47;16.33;;;8.90;;
69594;SDS011;56800;52.142;5.364;2022-11-20T03:51:18;18.50;;;9.95;;
69594;SDS011;56800;52.142;5.364;2022-11-20T03:53:47;16.20;;;9.17;;
69594;SDS011;56800;52.142;5.364;2022-11-20T03:56:15;16.40;;;9.48;;
69594;SDS011;56800;52.142;5.364;2022-11-20T03:58:43;14.10;;;8.38;;
69594;SDS011;56800;52.142;5.364;2022-11-20T04:03:44;14.03;;;8.40;;
69594;SDS011;56800;52.142;5.364;2022-11-20T04:06:12;16.13;;;9.02;;
69594;SDS011;56800;52.142;5.364;2022-11-20T04:08:44;18.67;;;9.75;;
69594;SDS011;56800;52.142;5.364;2022-11-20T04:11:19;16.58;;;9.25;;
69594;SDS011;56800;52.142;5.364;2022-11-20T04:13:54;20.43;;;9.67;;
69594;SDS011;56800;52.142;5.364;2022-11-20T04:16:25;16.70;;;9.23;;
69594;SDS011;56800;52.142;5.364;2022-11-20T04:18:57;17.25;;;9.10;;
69594;SDS011;56800;52.142;5.364;2022-11-20T04:21:25;18.58;;;9.77;;
69594;SDS011;56800;52.142;5.364;2022-11-20T04:23:52;18.37;;;9.90;;
69594;SDS011;56800;52.142;5.364;2022-11-20T04:26:20;16.63;;;9.68;;
69594;SDS011;56800;52.142;5.364;2022-11-20T04:28:48;15.68;;;9.10;;
69594;SDS011;56800;52.142;5.364;2022-11-20T04:31:16;16.60;;;9.82;;
69594;SDS011;56800;52.142;5.364;2022-11-20T04:33:44;16.23;;;9.37;;
69594;SDS011;56800;52.142;5.364;2022-11-20T04:36:12;17.58;;;9.45;;
69594;SDS011;56800;52.142;5.364;2022-11-20T04:38:49;17.02;;;9.40;;
69594;SDS011;56800;52.142;5.364;2022-11-20T04:41:23;18.45;;;9.95;;
69594;SDS011;56800;52.142;5.364;2022-11-20T04:43:55;17.48;;;8.93;;
69594;SDS011;56800;52.142;5.364;2022-11-20T04:46:26;14.07;;;7.85;;
69594;SDS011;56800;52.142;5.364;2022-11-20T04:48:53;16.70;;;8.43;;
69594;SDS011;56800;52.142;5.364;2022-11-20T04:51:20;16.73;;;9.33;;
69594;SDS011;56800;52.142;5.364;2022-11-20T04:53:47;15.63;;;9.23;;
69594;SDS011;56800;52.142;5.364;2022-11-20T04:56:14;17.65;;;9.38;;
69594;SDS011;56800;52.142;5.364;2022-11-20T04:58:41;15.43;;;9.05;;
69594;SDS011;56800;52.142;5.364;2022-11-20T05:01:09;16.47;;;9.43;;
69594;SDS011;56800;52.142;5.364;2022-11-20T05:03:41;16.92;;;8.65;;
69594;SDS011;56800;52.142;5.364;2022-11-20T05:06:09;17.83;;;9.13;;
69594;SDS011;56800;52.142;5.364;2022-11-20T05:08:37;17.77;;;8.85;;
69594;SDS011;56800;52.142;5.364;2022-11-20T05:11:04;17.42;;;9.02;;
69594;SDS011;56800;52.142;5.364;2022-11-20T05:13:39;15.88;;;9.00;;
69594;SDS011;56800;52.142;5.364;2022-11-20T05:16:10;18.38;;;9.52;;
69594;SDS011;56800;52.142;5.364;2022-11-20T05:18:39;17.50;;;8.43;;
69594;SDS011;56800;52.142;5.364;2022-11-20T05:21:06;20.47;;;9.87;;
69594;SDS011;56800;52.142;5.364;2022-11-20T05:23:34;20.38;;;9.80;;
69594;SDS011;56800;52.142;5.364;2022-11-20T05:26:01;19.02;;;9.23;;
69594;SDS011;56800;52.142;5.364;2022-11-20T05:28:29;17.60;;;9.27;;
69594;SDS011;56800;52.142;5.364;2022-11-20T05:31:03;15.43;;;8.50;;
69594;SDS011;56800;52.142;5.364;2022-11-20T05:33:34;17.08;;;9.43;;
69594;SDS011;56800;52.142;5.364;2022-11-20T05:36:02;20.00;;;9.70;;
69594;SDS011;56800;52.142;5.364;2022-11-20T05:38:30;15.40;;;9.13;;
69594;SDS011;56800;52.142;5.364;2022-11-20T05:41:02;17.57;;;9.53;;
69594;SDS011;56800;52.142;5.364;2022-11-20T05:43:33;16.58;;;8.98;;
69594;SDS011;56800;52.142;5.364;2022-11-20T05:46:01;16.92;;;9.15;;
69594;SDS011;56800;52.142;5.364;2022-11-20T05:48:29;17.35;;;9.57;;
69594;SDS011;56800;52.142;5.364;2022-11-20T05:50:57;18.33;;;9.83;;
69594;SDS011;56800;52.142;5.364;2022-11-20T05:53:24;20.13;;;10.27;;
69594;SDS011;56800;52.142;5.364;2022-11-20T05:55:58;15.40;;;9.30;;
69594;SDS011;56800;52.142;5.364;2022-11-20T05:58:29;17.02;;;9.30;;
69594;SDS011;56800;52.142;5.364;2022-11-20T06:01:07;18.10;;;9.80;;
69594;SDS011;56800;52.142;5.364;2022-11-20T06:03:35;16.77;;;9.32;;
69594;SDS011;56800;52.142;5.364;2022-11-20T06:06:03;20.35;;;9.40;;
69594;SDS011;56800;52.142;5.364;2022-11-20T06:08:30;17.77;;;9.57;;
69594;SDS011;56800;52.142;5.364;2022-11-20T06:10:58;17.08;;;9.40;;
69594;SDS011;56800;52.142;5.364;2022-11-20T06:13:28;17.38;;;9.25;;
69594;SDS011;56800;52.142;5.364;2022-11-20T06:15:55;18.83;;;10.10;;
69594;SDS011;56800;52.142;5.364;2022-11-20T06:18:21;17.97;;;10.60;;
69594;SDS011;56800;52.142;5.364;2022-11-20T06:20:48;16.45;;;9.93;;
69594;SDS011;56800;52.142;5.364;2022-11-20T06:23:14;16.38;;;9.82;;
69594;SDS011;56800;52.142;5.364;2022-11-20T06:25:41;18.05;;;9.52;;
69594;SDS011;56800;52.142;5.364;2022-11-20T06:28:09;18.13;;;10.20;;
69594;SDS011;56800;52.142;5.364;2022-11-20T06:30:36;17.65;;;9.80;;
69594;SDS011;56800;52.142;5.364;2022-11-20T06:33:02;18.98;;;9.88;;
69594;SDS011;56800;52.142;5.364;2022-11-20T06:35:29;20.35;;;10.13;;
69594;SDS011;56800;52.142;5.364;2022-11-20T06:37:55;19.37;;;9.37;;
69594;SDS011;56800;52.142;5.364;2022-11-20T06:40:23;16.52;;;9.82;;
69594;SDS011;56800;52.142;5.364;2022-11-20T06:42:49;19.50;;;9.77;;
69594;SDS011;56800;52.142;5.364;2022-11-20T06:45:16;16.10;;;10.20;;
69594;SDS011;56800;52.142;5.364;2022-11-20T06:47:42;20.02;;;9.55;;
69594;SDS011;56800;52.142;5.364;2022-11-20T06:50:09;19.00;;;9.93;;
69594;SDS011;56800;52.142;5.364;2022-11-20T06:52:36;18.52;;;8.93;;
69594;SDS011;56800;52.142;5.364;2022-11-20T06:55:08;19.57;;;10.10;;
69594;SDS011;56800;52.142;5.364;2022-11-20T06:57:35;18.13;;;9.20;;
69594;SDS011;56800;52.142;5.364;2022-11-20T07:00:02;20.02;;;9.68;;
69594;SDS011;56800;52.142;5.364;2022-11-20T07:02:29;18.67;;;9.40;;
69594;SDS011;56800;52.142;5.364;2022-11-20T07:04:55;18.50;;;9.40;;
69594;SDS011;56800;52.142;5.364;2022-11-20T07:07:22;21.50;;;9.50;;
69594;SDS011;56800;52.142;5.364;2022-11-20T07:09:48;19.00;;;9.90;;
69594;SDS011;56800;52.142;5.364;2022-11-20T07:12:15;20.38;;;9.80;;
69594;SDS011;56800;52.142;5.364;2022-11-20T07:14:42;17.50;;;9.33;;
69594;SDS011;56800;52.142;5.364;2022-11-20T07:17:08;18.55;;;9.82;;
69594;SDS011;56800;52.142;5.364;2022-11-20T07:19:35;21.48;;;10.65;;
69594;SDS011;56800;52.142;5.364;2022-11-20T07:22:01;17.13;;;9.68;;
69594;SDS011;56800;52.142;5.364;2022-11-20T07:24:28;17.07;;;9.50;;
69594;SDS011;56800;52.142;5.364;2022-11-20T07:26:55;19.08;;;8.93;;
69594;SDS011;56800;52.142;5.364;2022-11-20T07:29:21;20.20;;;9.75;;
69594;SDS011;56800;52.142;5.364;2022-11-20T07:31:48;16.33;;;9.40;;
69594;SDS011;56800;52.142;5.364;2022-11-20T07:34:15;15.75;;;9.43;;
69594;SDS011;56800;52.142;5.364;2022-11-20T07:36:42;19.40;;;9.52;;
69594;SDS011;56800;52.142;5.364;2022-11-20T07:39:08;22.85;;;10.00;;
69594;SDS011;56800;52.142;5.364;2022-11-20T07:41:35;20.50;;;9.90;;
69594;SDS011;56800;52.142;5.364;2022-11-20T07:44:02;15.10;;;9.25;;
69594;SDS011;56800;52.142;5.364;2022-11-20T07:46:28;18.95;;;9.57;;
69594;SDS011;56800;52.142;5.364;2022-11-20T07:48:55;19.85;;;9.77;;
69594;SDS011;56800;52.142;5.364;2022-11-20T07:51:21;17.17;;;9.60;;
69594;SDS011;56800;52.142;5.364;2022-11-20T07:53:50;19.83;;;9.75;;
69594;SDS011;56800;52.142;5.364;2022-11-20T07:56:17;18.58;;;9.32;;
69594;SDS011;56800;52.142;5.364;2022-11-20T07:58:44;20.77;;;9.40;;
69594;SDS011;56800;52.142;5.364;2022-11-20T08:01:11;18.50;;;9.57;;
69594;SDS011;56800;52.142;5.364;2022-11-20T08:03:38;17.75;;;9.57;;
69594;SDS011;56800;52.142;5.364;2022-11-20T08:06:04;19.55;;;10.52;;
69594;SDS011;56800;52.142;5.364;2022-11-20T08:08:31;17.00;;;9.57;;
69594;SDS011;56800;52.142;5.364;2022-11-20T08:11:00;17.65;;;9.68;;
69594;SDS011;56800;52.142;5.364;2022-11-20T08:13:45;17.40;;;9.55;;
69594;SDS011;56800;52.142;5.364;2022-11-20T08:16:30;19.90;;;9.35;;
69594;SDS011;56800;52.142;5.364;2022-11-20T08:18:56;17.10;;;9.53;;
69594;SDS011;56800;52.142;5.364;2022-11-20T08:21:23;18.80;;;9.20;;
69594;SDS011;56800;52.142;5.364;2022-11-20T08:23:50;19.67;;;10.07;;
69594;SDS011;56800;52.142;5.364;2022-11-20T08:26:17;19.52;;;9.60;;
69594;SDS011;56800;52.142;5.364;2022-11-20T08:28:43;18.92;;;9.82;;
69594;SDS011;56800;52.142;5.364;2022-11-20T08:31:10;19.00;;;9.98;;
69594;SDS011;56800;52.142;5.364;2022-11-20T08:33:37;18.58;;;9.82;;
69594;SDS011;56800;52.142;5.364;2022-11-20T08:36:03;19.90;;;10.20;;
69594;SDS011;56800;52.142;5.364;2022-11-20T08:38:31;21.13;;;9.73;;
69594;SDS011;56800;52.142;5.364;2022-11-20T08:40:58;18.13;;;9.77;;
69594;SDS011;56800;52.142;5.364;2022-11-20T08:43:45;17.17;;;9.82;;
69594;SDS011;56800;52.142;5.364;2022-11-20T08:46:12;19.60;;;10.40;;
69594;SDS011;56800;52.142;5.364;2022-11-20T08:48:38;21.55;;;10.63;;
69594;SDS011;56800;52.142;5.364;2022-11-20T08:51:05;17.27;;;9.82;;
69594;SDS011;56800;52.142;5.364;2022-11-20T08:53:32;18.30;;;10.20;;
69594;SDS011;56800;52.142;5.364;2022-11-20T08:55:58;19.90;;;9.67;;
69594;SDS011;56800;52.142;5.364;2022-11-20T08:58:25;17.20;;;9.45;;
69594;SDS011;56800;52.142;5.364;2022-11-20T09:00:52;19.77;;;10.45;;
69594;SDS011;56800;52.142;5.364;2022-11-20T09:03:19;17.98;;;10.40;;
69594;SDS011;56800;52.142;5.364;2022-11-20T09:05:46;23.23;;;10.77;;
69594;SDS011;56800;52.142;5.364;2022-11-20T09:08:13;17.05;;;9.68;;
69594;SDS011;56800;52.142;5.364;2022-11-20T09:10:40;20.55;;;10.85;;
69594;SDS011;56800;52.142;5.364;2022-11-20T09:13:06;17.65;;;10.07;;
69594;SDS011;56800;52.142;5.364;2022-11-20T09:15:33;19.83;;;11.20;;
69594;SDS011;56800;52.142;5.364;2022-11-20T09:18:01;18.48;;;10.07;;
69594;SDS011;56800;52.142;5.364;2022-11-20T09:20:29;20.67;;;11.07;;
69594;SDS011;56800;52.142;5.364;2022-11-20T09:22:57;20.85;;;11.43;;
69594;SDS011;56800;52.142;5.364;2022-11-20T09:25:23;20.27;;;10.57;;
69594;SDS011;56800;52.142;5.364;2022-11-20T09:27:57;20.98;;;10.88;;
69594;SDS011;56800;52.142;5.364;2022-11-20T09:30:25;20.77;;;11.50;;
69594;SDS011;56800;52.142;5.364;2022-11-20T09:32:52;18.90;;;11.00;;
69594;SDS011;56800;52.142;5.364;2022-11-20T09:35:19;21.83;;;12.13;;
69594;SDS011;56800;52.142;5.364;2022-11-20T09:37:46;19.05;;;11.25;;
69594;SDS011;56800;52.142;5.364;2022-11-20T09:40:18;22.83;;;12.23;;
69594;SDS011;56800;52.142;5.364;2022-11-20T09:42:53;23.33;;;10.93;;
69594;SDS011;56800;52.142;5.364;2022-11-20T09:45:30;21.00;;;11.38;;
69594;SDS011;56800;52.142;5.364;2022-11-20T09:56:42;18.17;;;10.93;;
69594;SDS011;56800;52.142;5.364;2022-11-20T10:10:50;22.00;;;12.07;;
69594;SDS011;56800;52.142;5.364;2022-11-20T10:22:10;23.23;;;11.80;;
69594;SDS011;56800;52.142;5.364;2022-11-20T10:24:56;19.88;;;11.02;;
69594;SDS011;56800;52.142;5.364;2022-11-20T10:30:21;22.55;;;12.57;;
69594;SDS011;56800;52.142;5.364;2022-11-20T10:32:58;21.58;;;12.20;;
69594;SDS011;56800;52.142;5.364;2022-11-20T10:35:36;21.70;;;12.20;;
69594;SDS011;56800;52.142;5.364;2022-11-20T10:38:31;25.45;;;12.43;;
69594;SDS011;56800;52.142;5.364;2022-11-20T10:41:03;23.65;;;13.35;;
69594;SDS011;56800;52.142;5.364;2022-11-20T10:43:59;25.75;;;13.75;;
69594;SDS011;56800;52.142;5.364;2022-11-20T10:46:36;22.23;;;12.77;;
69594;SDS011;56800;52.142;5.364;2022-11-20T10:49:13;22.33;;;13.27;;
69594;SDS011;56800;52.142;5.364;2022-11-20T10:54:31;25.65;;;13.90;;
69594;SDS011;56800;52.142;5.364;2022-11-20T10:57:31;26.25;;;13.48;;
69594;SDS011;56800;52.142;5.364;2022-11-20T11:00:16;26.75;;;14.68;;
69594;SDS011;56800;52.142;5.364;2022-11-20T11:05:32;27.65;;;14.05;;
69594;SDS011;56800;52.142;5.364;2022-11-20T11:08:00;28.33;;;14.63;;
69594;SDS011;56800;52.142;5.364;2022-11-20T11:13:23;26.73;;;15.20;;
69594;SDS011;56800;52.142;5.364;2022-11-20T11:15:51;26.87;;;15.30;;
69594;SDS011;56800;52.142;5.364;2022-11-20T11:20:59;29.13;;;15.07;;
69594;SDS011;56800;52.142;5.364;2022-11-20T11:23:32;26.40;;;15.15;;
69594;SDS011;56800;52.142;5.364;2022-11-20T11:26:04;30.77;;;14.95;;
69594;SDS011;56800;52.142;5.364;2022-11-20T11:28:55;29.67;;;15.63;;
69594;SDS011;56800;52.142;5.364;2022-11-20T11:31:28;29.08;;;15.52;;
69594;SDS011;56800;52.142;5.364;2022-11-20T11:34:05;27.55;;;14.27;;
69594;SDS011;56800;52.142;5.364;2022-11-20T11:36:49;28.15;;;15.55;;
69594;SDS011;56800;52.142;5.364;2022-11-20T11:39:21;27.75;;;15.48;;
69594;SDS011;56800;52.142;5.364;2022-11-20T11:41:48;27.87;;;16.00;;
69594;SDS011;56800;52.142;5.364;2022-11-20T11:44:16;26.35;;;15.93;;
69594;SDS011;56800;52.142;5.364;2022-11-20T11:52:49;28.50;;;16.15;;
69594;SDS011;56800;52.142;5.364;2022-11-20T11:55:44;29.70;;;16.77;;
69594;SDS011;56800;52.142;5.364;2022-11-20T12:07:03;33.65;;;18.30;;
69594;SDS011;56800;52.142;5.364;2022-11-20T12:10:02;31.63;;;17.83;;
69594;SDS011;56800;52.142;5.364;2022-11-20T12:12:36;32.67;;;18.55;;
69594;SDS011;56800;52.142;5.364;2022-11-20T12:15:09;35.63;;;18.33;;
69594;SDS011;56800;52.142;5.364;2022-11-20T12:17:38;38.50;;;19.98;;
69594;SDS011;56800;52.142;5.364;2022-11-20T12:20:10;34.40;;;18.35;;
69594;SDS011;56800;52.142;5.364;2022-11-20T12:30:23;33.45;;;18.65;;
69594;SDS011;56800;52.142;5.364;2022-11-20T12:36:04;35.43;;;19.43;;
69594;SDS011;56800;52.142;5.364;2022-11-20T12:38:55;32.67;;;18.27;;
69594;SDS011;56800;52.142;5.364;2022-11-20T13:05:11;34.07;;;18.63;;
69594;SDS011;56800;52.142;5.364;2022-11-20T13:07:46;33.65;;;17.95;;
69594;SDS011;56800;52.142;5.364;2022-11-20T13:16:06;34.97;;;18.65;;
69594;SDS011;56800;52.142;5.364;2022-11-20T13:18:53;34.53;;;18.87;;
69594;SDS011;56800;52.142;5.364;2022-11-20T13:21:21;34.03;;;18.40;;
69594;SDS011;56800;52.142;5.364;2022-11-20T13:24:05;34.78;;;18.98;;
69594;SDS011;56800;52.142;5.364;2022-11-20T13:26:33;34.25;;;19.02;;
69594;SDS011;56800;52.142;5.364;2022-11-20T13:29:07;36.20;;;19.65;;
69594;SDS011;56800;52.142;5.364;2022-11-20T13:31:39;34.53;;;19.57;;
69594;SDS011;56800;52.142;5.364;2022-11-20T13:34:11;34.47;;;19.42;;
69594;SDS011;56800;52.142;5.364;2022-11-20T13:36:48;35.90;;;19.42;;
69594;SDS011;56800;52.142;5.364;2022-11-20T13:39:26;36.40;;;18.95;;
69594;SDS011;56800;52.142;5.364;2022-11-20T13:41:59;41.60;;;19.17;;
69594;SDS011;56800;52.142;5.364;2022-11-20T13:44:42;36.33;;;19.47;;
69594;SDS011;56800;52.142;5.364;2022-11-20T13:47:26;37.55;;;19.45;;
69594;SDS011;56800;52.142;5.364;2022-11-20T13:49:54;35.60;;;19.58;;
69594;SDS011;56800;52.142;5.364;2022-11-20T13:55:26;37.17;;;18.48;;
69594;SDS011;56800;52.142;5.364;2022-11-20T14:00:55;37.22;;;19.30;;
69594;SDS011;56800;52.142;5.364;2022-11-20T14:03:44;36.75;;;18.35;;
69594;SDS011;56800;52.142;5.364;2022-11-20T14:06:52;34.50;;;19.08;;
69594;SDS011;56800;52.142;5.364;2022-11-20T14:09:25;38.30;;;19.35;;
69594;SDS011;56800;52.142;5.364;2022-11-20T14:11:57;34.40;;;18.90;;
69594;SDS011;56800;52.142;5.364;2022-11-20T14:14:24;34.63;;;17.92;;
69594;SDS011;56800;52.142;5.364;2022-11-20T14:16:53;35.88;;;18.85;;
69594;SDS011;56800;52.142;5.364;2022-11-20T14:19:43;37.08;;;18.33;;
69594;SDS011;56800;52.142;5.364;2022-11-20T14:24:49;36.60;;;19.07;;
69594;SDS011;56800;52.142;5.364;2022-11-20T14:27:28;39.25;;;18.65;;
69594;SDS011;56800;52.142;5.364;2022-11-20T14:29:55;38.30;;;19.92;;
69594;SDS011;56800;52.142;5.364;2022-11-20T14:32:22;41.83;;;20.05;;
69594;SDS011;56800;52.142;5.364;2022-11-20T14:34:52;40.00;;;20.13;;
69594;SDS011;56800;52.142;5.364;2022-11-20T14:37:23;40.43;;;19.20;;
69594;SDS011;56800;52.142;5.364;2022-11-20T14:39:53;39.17;;;19.00;;
69594;SDS011;56800;52.142;5.364;2022-11-20T14:42:22;40.40;;;20.35;;
69594;SDS011;56800;52.142;5.364;2022-11-20T14:44:51;44.95;;;20.45;;
69594;SDS011;56800;52.142;5.364;2022-11-20T14:47:22;38.65;;;19.60;;
69594;SDS011;56800;52.142;5.364;2022-11-20T14:49:51;39.63;;;20.17;;
69594;SDS011;56800;52.142;5.364;2022-11-20T14:52:23;38.83;;;19.58;;
69594;SDS011;56800;52.142;5.364;2022-11-20T14:54:55;37.60;;;18.23;;
69594;SDS011;56800;52.142;5.364;2022-11-20T14:57:32;37.88;;;19.90;;
69594;SDS011;56800;52.142;5.364;2022-11-20T15:02:41;38.13;;;19.50;;
69594;SDS011;56800;52.142;5.364;2022-11-20T15:05:08;43.33;;;19.40;;
69594;SDS011;56800;52.142;5.364;2022-11-20T15:07:40;38.53;;;19.60;;
69594;SDS011;56800;52.142;5.364;2022-11-20T15:12:48;37.83;;;19.23;;
69594;SDS011;56800;52.142;5.364;2022-11-20T15:15:36;42.00;;;19.07;;
69594;SDS011;56800;52.142;5.364;2022-11-20T15:18:12;45.83;;;19.17;;
69594;SDS011;56800;52.142;5.364;2022-11-20T15:20:47;37.67;;;19.30;;
69594;SDS011;56800;52.142;5.364;2022-11-20T15:23:15;43.55;;;19.58;;
69594;SDS011;56800;52.142;5.364;2022-11-20T15:25:46;46.05;;;19.65;;
69594;SDS011;56800;52.142;5.364;2022-11-20T15:28:16;39.73;;;19.07;;
69594;SDS011;56800;52.142;5.364;2022-11-20T15:30:46;47.83;;;19.38;;
69594;SDS011;56800;52.142;5.364;2022-11-20T15:33:14;59.30;;;20.83;;
69594;SDS011;56800;52.142;5.364;2022-11-20T15:35:41;42.55;;;20.00;;
69594;SDS011;56800;52.142;5.364;2022-11-20T15:38:08;47.22;;;20.02;;
69594;SDS011;56800;52.142;5.364;2022-11-20T15:40:35;52.77;;;18.43;;
69594;SDS011;56800;52.142;5.364;2022-11-20T15:43:02;40.90;;;19.67;;
69594;SDS011;56800;52.142;5.364;2022-11-20T15:45:36;41.63;;;19.95;;
69594;SDS011;56800;52.142;5.364;2022-11-20T15:48:04;34.35;;;18.52;;
69594;SDS011;56800;52.142;5.364;2022-11-20T15:50:36;39.83;;;19.38;;
69594;SDS011;56800;52.142;5.364;2022-11-20T15:53:05;41.03;;;18.77;;
69594;SDS011;56800;52.142;5.364;2022-11-20T15:55:32;38.72;;;19.20;;
69594;SDS011;56800;52.142;5.364;2022-11-20T15:57:58;40.03;;;19.90;;
69594;SDS011;56800;52.142;5.364;2022-11-20T16:00:25;36.13;;;19.58;;
69594;SDS011;56800;52.142;5.364;2022-11-20T16:02:52;38.92;;;19.88;;
69594;SDS011;56800;52.142;5.364;2022-11-20T16:05:19;35.87;;;19.13;;
69594;SDS011;56800;52.142;5.364;2022-11-20T16:07:45;38.30;;;19.75;;
69594;SDS011;56800;52.142;5.364;2022-11-20T16:10:12;38.47;;;19.33;;
69594;SDS011;56800;52.142;5.364;2022-11-20T16:12:38;38.22;;;19.10;;
69594;SDS011;56800;52.142;5.364;2022-11-20T16:15:24;39.78;;;20.15;;
69594;SDS011;56800;52.142;5.364;2022-11-20T16:18:10;34.13;;;19.17;;
69594;SDS011;56800;52.142;5.364;2022-11-20T16:20:38;40.38;;;20.40;;
69594;SDS011;56800;52.142;5.364;2022-11-20T16:23:05;47.05;;;19.75;;
69594;SDS011;56800;52.142;5.364;2022-11-20T16:25:33;42.40;;;19.98;;
69594;SDS011;56800;52.142;5.364;2022-11-20T16:27:59;40.60;;;20.15;;
69594;SDS011;56800;52.142;5.364;2022-11-20T16:30:26;38.43;;;20.43;;
69594;SDS011;56800;52.142;5.364;2022-11-20T16:32:53;44.10;;;20.75;;
69594;SDS011;56800;52.142;5.364;2022-11-20T16:35:20;36.42;;;20.10;;
69594;SDS011;56800;52.142;5.364;2022-11-20T16:37:47;43.05;;;22.33;;
69594;SDS011;56800;52.142;5.364;2022-11-20T16:40:13;36.30;;;20.65;;
69594;SDS011;56800;52.142;5.364;2022-11-20T16:42:40;52.17;;;22.43;;